sensor_id;sensor_type;location;lat;lon;timestamp;pressure;altitude;pressure_sealevel;temperature;humidity
18275;BME280;19470;49.322;7.218;2023-01-31T00:00:50;99729.88;;;7.09;100.00
18275;BME280;19470;49.322;7.218;2023-01-31T00:03:17;99729.75;;;7.58;100.00
18275;BME280;19470;49.322;7.218;2023-01-31T00:05:43;99735.28;;;6.73;100.00
18275;BME280;19470;49.322;7.218;2023-01-31T00:08:10;99735.03;;;7.58;100.00
18275;BME280;19470;49.322;7.218;2023-01-31T00:10:37;99737.88;;;7.63;100.00
18275;BME280;19470;49.322;7.218;2023-01-31T00:13:04;99738.59;;;7.44;100.00
18275;BME280;19470;49.322;7.218;2023-01-31T00:15:31;99726.66;;;7.13;100.00
18275;BME280;19470;49.322;7.218;2023-01-31T00:17:57;99725.97;;;7.81;100.00
18275;BME280;19470;49.322;7.218;2023-01-31T00:20:24;99700.72;;;8.33;100.00
18275;BME280;19470;49.322;7.218;2023-01-31T00:22:50;99698.56;;;7.68;100.00
18275;BME280;19470;49.322;7.218;2023-01-31T00:25:17;99703.63;;;6.94;100.00
18275;BME280;19470;49.322;7.218;2023-01-31T00:27:44;99696.38;;;7.31;100.00
18275;BME280;19470;49.322;7.218;2023-01-31T00:30:12;99706.72;;;7.87;100.00
18275;BME280;19470;49.322;7.218;2023-01-31T00:32:38;99709.78;;;7.97;100.00
18275;BME280;19470;49.322;7.218;2023-01-31T00:35:05;99708.72;;;7.72;100.00
18275;BME280;19470;49.322;7.218;2023-01-31T00:37:32;99715.19;;;7.76;100.00
18275;BME280;19470;49.322;7.218;2023-01-31T00:39:58;99710.63;;;8.17;100.00
18275;BME280;19470;49.322;7.218;2023-01-31T00:42:25;99714.97;;;6.95;100.00
18275;BME280;19470;49.322;7.218;2023-01-31T00:44:51;99710.94;;;7.75;100.00
18275;BME280;19470;49.322;7.218;2023-01-31T00:47:19;99707.88;;;7.71;100.00
18275;BME280;19470;49.322;7.218;2023-01-31T00:49:45;99706.56;;;7.47;100.00
18275;BME280;19470;49.322;7.218;2023-01-31T00:52:12;99698.63;;;7.40;100.00
18275;BME280;19470;49.322;7.218;2023-01-31T00:54:38;99699.91;;;8.19;100.00
18275;BME280;19470;49.322;7.218;2023-01-31T00:57:05;99702.22;;;7.81;100.00
18275;BME280;19470;49.322;7.218;2023-01-31T00:59:31;99696.47;;;7.57;100.00
18275;BME280;19470;49.322;7.218;2023-01-31T01:01:58;99700.81;;;7.72;100.00
18275;BME280;19470;49.322;7.218;2023-01-31T01:04:25;99711.50;;;7.63;100.00
18275;BME280;19470;49.322;7.218;2023-01-31T01:06:52;99709.19;;;7.06;100.00
18275;BME280;19470;49.322;7.218;2023-01-31T01:09:18;99702.78;;;7.22;100.00
18275;BME280;19470;49.322;7.218;2023-01-31T01:11:47;99715.66;;;7.03;100.00
18275;BME280;19470;49.322;7.218;2023-01-31T01:14:14;99707.69;;;7.25;100.00
18275;BME280;19470;49.322;7.218;2023-01-31T01:16:40;99711.22;;;7.10;100.00
18275;BME280;19470;49.322;7.218;2023-01-31T01:19:11;99709.13;;;6.93;100.00
18275;BME280;19470;49.322;7.218;2023-01-31T01:21:53;99724.75;;;7.01;100.00
18275;BME280;19470;49.322;7.218;2023-01-31T01:24:19;99729.41;;;6.99;100.00
18275;BME280;19470;49.322;7.218;2023-01-31T01:26:46;99735.22;;;6.87;100.00
18275;BME280;19470;49.322;7.218;2023-01-31T01:29:13;99733.44;;;6.45;100.00
18275;BME280;19470;49.322;7.218;2023-01-31T01:31:39;99743.50;;;7.19;100.00
18275;BME280;19470;49.322;7.218;2023-01-31T01:34:10;99743.88;;;6.38;100.00
18275;BME280;19470;49.322;7.218;2023-01-31T01:36:37;99737.25;;;6.64;100.00
18275;BME280;19470;49.322;7.218;2023-01-31T01:39:09;99739.03;;;7.20;100.00
18275;BME280;19470;49.322;7.218;2023-01-31T01:41:37;99749.13;;;7.44;100.00
18275;BME280;19470;49.322;7.218;2023-01-31T01:44:42;99744.81;;;7.30;100.00
18275;BME280;19470;49.322;7.218;2023-01-31T01:47:13;99752.38;;;7.46;100.00
18275;BME280;19470;49.322;7.218;2023-01-31T01:49:40;99752.28;;;6.98;100.00
18275;BME280;19470;49.322;7.218;2023-01-31T01:52:08;99754.94;;;7.67;100.00
18275;BME280;19470;49.322;7.218;2023-01-31T01:54:42;99745.28;;;7.88;100.00
18275;BME280;19470;49.322;7.218;2023-01-31T01:57:10;99753.53;;;7.30;100.00
18275;BME280;19470;49.322;7.218;2023-01-31T01:59:41;99745.06;;;7.89;100.00
18275;BME280;19470;49.322;7.218;2023-01-31T02:02:09;99753.06;;;8.09;100.00
18275;BME280;19470;49.322;7.218;2023-01-31T02:04:38;99751.84;;;8.12;100.00
18275;BME280;19470;49.322;7.218;2023-01-31T02:07:06;99744.16;;;8.24;100.00
18275;BME280;19470;49.322;7.218;2023-01-31T02:09:41;99753.41;;;8.00;100.00
18275;BME280;19470;49.322;7.218;2023-01-31T02:12:11;99758.75;;;8.19;100.00
18275;BME280;19470;49.322;7.218;2023-01-31T02:14:38;99748.50;;;7.90;100.00
18275;BME280;19470;49.322;7.218;2023-01-31T02:17:08;99753.47;;;7.58;100.00
18275;BME280;19470;49.322;7.218;2023-01-31T02:19:47;99753.69;;;7.63;100.00
18275;BME280;19470;49.322;7.218;2023-01-31T02:22:18;99737.97;;;7.90;100.00
18275;BME280;19470;49.322;7.218;2023-01-31T02:25:21;99744.41;;;7.81;100.00
18275;BME280;19470;49.322;7.218;2023-01-31T02:28:11;99743.22;;;7.77;
18275;BME280;19470;49.322;7.218;2023-01-31T02:33:48;99736.94;;;7.84;100.00
18275;BME280;19470;49.322;7.218;2023-01-31T02:36:26;99744.69;;;7.51;100.00
18275;BME280;19470;49.322;7.218;2023-01-31T02:39:04;99735.31;;;7.90;100.00
18275;BME280;19470;49.322;7.218;2023-01-31T02:41:37;99739.84;;;7.48;100.00
18275;BME280;19470;49.322;7.218;2023-01-31T02:44:12;99736.50;;;8.49;100.00
18275;BME280;19470;49.322;7.218;2023-01-31T02:47:05;99742.78;;;7.80;100.00
18275;BME280;19470;49.322;7.218;2023-01-31T02:49:40;99734.88;;;8.67;100.00
18275;BME280;19470;49.322;7.218;2023-01-31T02:52:15;99736.06;;;9.11;100.00
18275;BME280;19470;49.322;7.218;2023-01-31T02:54:50;99738.91;;;7.28;100.00
18275;BME280;19470;49.322;7.218;2023-01-31T02:57:35;99745.06;;;6.79;100.00
18275;BME280;19470;49.322;7.218;2023-01-31T03:00:05;99735.69;;;7.74;100.00
18275;BME280;19470;49.322;7.218;2023-01-31T03:02:33;99742.19;;;7.36;100.00
18275;BME280;19470;49.322;7.218;2023-01-31T03:05:01;99750.63;;;8.21;100.00
18275;BME280;19470;49.322;7.218;2023-01-31T03:07:29;99741.84;;;7.53;100.00
18275;BME280;19470;49.322;7.218;2023-01-31T03:10:07;99734.72;;;7.81;100.00
18275;BME280;19470;49.322;7.218;2023-01-31T03:12:48;99731.69;;;7.43;100.00
18275;BME280;19470;49.322;7.218;2023-01-31T03:15:26;99731.44;;;7.79;100.00
18275;BME280;19470;49.322;7.218;2023-01-31T03:18:18;99736.88;;;7.71;100.00
18275;BME280;19470;49.322;7.218;2023-01-31T03:20:49;99739.53;;;8.45;100.00
18275;BME280;19470;49.322;7.218;2023-01-31T03:23:19;99737.63;;;8.13;100.00
18275;BME280;19470;49.322;7.218;2023-01-31T03:25:47;99736.38;;;7.96;100.00
18275;BME280;19470;49.322;7.218;2023-01-31T03:28:19;99738.03;;;8.16;100.00
18275;BME280;19470;49.322;7.218;2023-01-31T03:30:49;99734.22;;;7.64;100.00
18275;BME280;19470;49.322;7.218;2023-01-31T03:33:21;99739.56;;;7.84;100.00
18275;BME280;19470;49.322;7.218;2023-01-31T03:35:54;99735.25;;;7.63;100.00
18275;BME280;19470;49.322;7.218;2023-01-31T03:38:25;99736.91;;;8.39;100.00
18275;BME280;19470;49.322;7.218;2023-01-31T03:40:56;99741.66;;;8.09;100.00
18275;BME280;19470;49.322;7.218;2023-01-31T03:43:26;99736.50;;;8.49;100.00
18275;BME280;19470;49.322;7.218;2023-01-31T03:45:57;99741.75;;;7.67;100.00
18275;BME280;19470;49.322;7.218;2023-01-31T03:48:27;99748.81;;;7.60;100.00
18275;BME280;19470;49.322;7.218;2023-01-31T03:50:58;99745.03;;;7.83;100.00
18275;BME280;19470;49.322;7.218;2023-01-31T03:53:31;99742.50;;;7.55;100.00
18275;BME280;19470;49.322;7.218;2023-01-31T03:56:00;99732.25;;;6.97;100.00
18275;BME280;19470;49.322;7.218;2023-01-31T03:58:31;99733.72;;;6.78;100.00
18275;BME280;19470;49.322;7.218;2023-01-31T04:01:01;99738.66;;;6.88;100.00
18275;BME280;19470;49.322;7.218;2023-01-31T04:03:35;99738.09;;;6.99;100.00
18275;BME280;19470;49.322;7.218;2023-01-31T04:06:04;99737.28;;;6.71;100.00
18275;BME280;19470;49.322;7.218;2023-01-31T04:08:31;99745.91;;;6.36;100.00
18275;BME280;19470;49.322;7.218;2023-01-31T04:10:58;99744.25;;;6.78;100.00
18275;BME280;19470;49.322;7.218;2023-01-31T04:13:25;99741.69;;;7.20;100.00
18275;BME280;19470;49.322;7.218;2023-01-31T04:15:52;99743.03;;;7.09;100.00
18275;BME280;19470;49.322;7.218;2023-01-31T04:18:18;99739.66;;;6.87;100.00
18275;BME280;19470;49.322;7.218;2023-01-31T04:20:44;99749.31;;;6.15;100.00
18275;BME280;19470;49.322;7.218;2023-01-31T04:23:12;99738.78;;;6.80;100.00
18275;BME280;19470;49.322;7.218;2023-01-31T04:25:39;99743.31;;;6.64;100.00
18275;BME280;19470;49.322;7.218;2023-01-31T04:28:05;99743.03;;;6.31;100.00
18275;BME280;19470;49.322;7.218;2023-01-31T04:30:38;99737.63;;;6.89;100.00
18275;BME280;19470;49.322;7.218;2023-01-31T04:33:10;99750.75;;;5.97;100.00
18275;BME280;19470;49.322;7.218;2023-01-31T04:35:38;99738.44;;;6.19;100.00
18275;BME280;19470;49.322;7.218;2023-01-31T04:38:05;99748.84;;;6.27;100.00
18275;BME280;19470;49.322;7.218;2023-01-31T04:40:33;99746.72;;;6.37;100.00
18275;BME280;19470;49.322;7.218;2023-01-31T04:42:59;99754.47;;;6.95;100.00
18275;BME280;19470;49.322;7.218;2023-01-31T04:45:26;99736.63;;;6.90;100.00
18275;BME280;19470;49.322;7.218;2023-01-31T04:47:52;99738.81;;;5.79;100.00
18275;BME280;19470;49.322;7.218;2023-01-31T04:50:19;99746.03;;;5.77;100.00
18275;BME280;19470;49.322;7.218;2023-01-31T04:52:48;99744.34;;;6.42;100.00
18275;BME280;19470;49.322;7.218;2023-01-31T04:55:15;99736.53;;;6.77;100.00
18275;BME280;19470;49.322;7.218;2023-01-31T04:57:42;99732.81;;;6.22;100.00
18275;BME280;19470;49.322;7.218;2023-01-31T05:00:10;99725.66;;;6.37;100.00
18275;BME280;19470;49.322;7.218;2023-01-31T05:02:37;99725.31;;;6.40;100.00
18275;BME280;19470;49.322;7.218;2023-01-31T05:05:04;99733.22;;;6.04;100.00
18275;BME280;19470;49.322;7.218;2023-01-31T05:07:30;99744.09;;;6.37;100.00
18275;BME280;19470;49.322;7.218;2023-01-31T05:09:57;99739.13;;;6.27;100.00
18275;BME280;19470;49.322;7.218;2023-01-31T05:12:23;99735.56;;;6.56;100.00
18275;BME280;19470;49.322;7.218;2023-01-31T05:14:52;99738.50;;;6.25;100.00
18275;BME280;19470;49.322;7.218;2023-01-31T05:17:18;99737.28;;;5.55;100.00
18275;BME280;19470;49.322;7.218;2023-01-31T05:19:50;99739.91;;;5.41;100.00
18275;BME280;19470;49.322;7.218;2023-01-31T05:22:17;99739.09;;;5.40;100.00
18275;BME280;19470;49.322;7.218;2023-01-31T05:24:46;99747.13;;;5.68;100.00
18275;BME280;19470;49.322;7.218;2023-01-31T05:27:13;99740.75;;;6.28;100.00
18275;BME280;19470;49.322;7.218;2023-01-31T05:29:40;99746.13;;;5.84;100.00
18275;BME280;19470;49.322;7.218;2023-01-31T05:32:08;99734.31;;;5.29;100.00
18275;BME280;19470;49.322;7.218;2023-01-31T05:34:35;99732.97;;;5.84;100.00
18275;BME280;19470;49.322;7.218;2023-01-31T05:37:02;99736.22;;;5.86;100.00
18275;BME280;19470;49.322;7.218;2023-01-31T05:39:29;99742.34;;;5.72;100.00
18275;BME280;19470;49.322;7.218;2023-01-31T05:41:56;99748.69;;;6.35;100.00
18275;BME280;19470;49.322;7.218;2023-01-31T05:44:23;99752.66;;;6.03;100.00
18275;BME280;19470;49.322;7.218;2023-01-31T05:46:49;99763.31;;;6.01;100.00
18275;BME280;19470;49.322;7.218;2023-01-31T05:49:17;99762.88;;;6.34;100.00
18275;BME280;19470;49.322;7.218;2023-01-31T05:51:44;99759.41;;;7.04;100.00
18275;BME280;19470;49.322;7.218;2023-01-31T05:54:11;99758.47;;;6.84;100.00
18275;BME280;19470;49.322;7.218;2023-01-31T05:56:37;99758.34;;;6.71;100.00
18275;BME280;19470;49.322;7.218;2023-01-31T05:59:04;99761.41;;;6.10;100.00
18275;BME280;19470;49.322;7.218;2023-01-31T06:01:30;99764.22;;;6.94;100.00
18275;BME280;19470;49.322;7.218;2023-01-31T06:03:57;99751.94;;;5.79;100.00
18275;BME280;19470;49.322;7.218;2023-01-31T06:06:25;99766.47;;;6.11;100.00
18275;BME280;19470;49.322;7.218;2023-01-31T06:08:51;99764.56;;;6.42;100.00
18275;BME280;19470;49.322;7.218;2023-01-31T06:11:17;99765.69;;;5.96;100.00
18275;BME280;19470;49.322;7.218;2023-01-31T06:13:44;99764.59;;;6.05;100.00
18275;BME280;19470;49.322;7.218;2023-01-31T06:16:11;99776.41;;;6.52;100.00
18275;BME280;19470;49.322;7.218;2023-01-31T06:18:37;99768.31;;;7.03;100.00
18275;BME280;19470;49.322;7.218;2023-01-31T06:21:04;99758.09;;;6.44;100.00
18275;BME280;19470;49.322;7.218;2023-01-31T06:23:33;99756.72;;;6.70;100.00
18275;BME280;19470;49.322;7.218;2023-01-31T06:25:59;99743.63;;;5.61;100.00
18275;BME280;19470;49.322;7.218;2023-01-31T06:28:26;99744.50;;;5.98;100.00
18275;BME280;19470;49.322;7.218;2023-01-31T06:30:53;99745.97;;;6.64;100.00
18275;BME280;19470;49.322;7.218;2023-01-31T06:33:19;99747.28;;;6.82;100.00
18275;BME280;19470;49.322;7.218;2023-01-31T06:35:45;99738.94;;;6.29;100.00
18275;BME280;19470;49.322;7.218;2023-01-31T06:38:12;99755.16;;;7.03;100.00
18275;BME280;19470;49.322;7.218;2023-01-31T06:40:41;99750.84;;;6.46;100.00
18275;BME280;19470;49.322;7.218;2023-01-31T06:43:08;99759.25;;;6.56;100.00
18275;BME280;19470;49.322;7.218;2023-01-31T06:45:34;99760.25;;;6.55;100.00
18275;BME280;19470;49.322;7.218;2023-01-31T06:48:01;99764.38;;;6.43;100.00
18275;BME280;19470;49.322;7.218;2023-01-31T06:50:28;99756.78;;;6.33;100.00
18275;BME280;19470;49.322;7.218;2023-01-31T06:52:55;99751.66;;;6.47;100.00
18275;BME280;19470;49.322;7.218;2023-01-31T06:55:23;99752.34;;;6.34;100.00
18275;BME280;19470;49.322;7.218;2023-01-31T06:57:51;99751.72;;;6.32;100.00
18275;BME280;19470;49.322;7.218;2023-01-31T07:00:18;99752.06;;;6.72;100.00
18275;BME280;19470;49.322;7.218;2023-01-31T07:02:45;99757.22;;;6.80;100.00
18275;BME280;19470;49.322;7.218;2023-01-31T07:05:11;99756.31;;;6.94;100.00
18275;BME280;19470;49.322;7.218;2023-01-31T07:07:38;99747.81;;;7.27;100.00
18275;BME280;19470;49.322;7.218;2023-01-31T07:10:05;99750.16;;;6.59;100.00
18275;BME280;19470;49.322;7.218;2023-01-31T07:12:31;99747.25;;;6.54;100.00
18275;BME280;19470;49.322;7.218;2023-01-31T07:14:59;99739.47;;;6.67;100.00
18275;BME280;19470;49.322;7.218;2023-01-31T07:17:26;99744.94;;;6.44;100.00
18275;BME280;19470;49.322;7.218;2023-01-31T07:19:53;99745.56;;;7.24;100.00
18275;BME280;19470;49.322;7.218;2023-01-31T07:22:19;99756.03;;;6.82;100.00
18275;BME280;19470;49.322;7.218;2023-01-31T07:24:45;99756.66;;;7.12;100.00
18275;BME280;19470;49.322;7.218;2023-01-31T07:27:13;99753.44;;;6.68;100.00
18275;BME280;19470;49.322;7.218;2023-01-31T07:29:40;99758.81;;;7.02;100.00
18275;BME280;19470;49.322;7.218;2023-01-31T07:32:09;99762.59;;;7.21;100.00
18275;BME280;19470;49.322;7.218;2023-01-31T07:34:36;99765.63;;;6.69;100.00
18275;BME280;19470;49.322;7.218;2023-01-31T07:37:02;99758.81;;;7.37;100.00
18275;BME280;19470;49.322;7.218;2023-01-31T07:39:29;99751.69;;;7.31;100.00
18275;BME280;19470;49.322;7.218;2023-01-31T07:41:55;99743.69;;;6.61;100.00
18275;BME280;19470;49.322;7.218;2023-01-31T07:44:22;99746.31;;;7.52;100.00
18275;BME280;19470;49.322;7.218;2023-01-31T07:46:48;99738.59;;;7.44;100.00
18275;BME280;19470;49.322;7.218;2023-01-31T07:49:16;99732.38;;;7.24;100.00
18275;BME280;19470;49.322;7.218;2023-01-31T07:51:43;99737.44;;;7.53;100.00
18275;BME280;19470;49.322;7.218;2023-01-31T07:54:10;99752.94;;;7.35;100.00
18275;BME280;19470;49.322;7.218;2023-01-31T07:56:37;99754.75;;;7.34;100.00
18275;BME280;19470;49.322;7.218;2023-01-31T07:59:03;99745.50;;;7.93;100.00
18275;BME280;19470;49.322;7.218;2023-01-31T08:01:30;99751.81;;;6.88;100.00
18275;BME280;19470;49.322;7.218;2023-01-31T08:04:16;99757.63;;;7.39;100.00
18275;BME280;19470;49.322;7.218;2023-01-31T08:06:43;99762.69;;;7.06;100.00
18275;BME280;19470;49.322;7.218;2023-01-31T08:09:11;99767.09;;;6.99;100.00
18275;BME280;19470;49.322;7.218;2023-01-31T08:11:38;99761.75;;;7.55;100.00
18275;BME280;19470;49.322;7.218;2023-01-31T08:14:04;99748.28;;;7.37;100.00
18275;BME280;19470;49.322;7.218;2023-01-31T08:16:32;99755.66;;;7.48;100.00
18275;BME280;19470;49.322;7.218;2023-01-31T08:19:00;99749.00;;;7.24;100.00
18275;BME280;19470;49.322;7.218;2023-01-31T08:21:28;99752.38;;;7.11;100.00
18275;BME280;19470;49.322;7.218;2023-01-31T08:23:55;99755.06;;;6.90;100.00
18275;BME280;19470;49.322;7.218;2023-01-31T08:26:21;99756.69;;;7.19;100.00
18275;BME280;19470;49.322;7.218;2023-01-31T08:28:49;99768.50;;;6.74;100.00
18275;BME280;19470;49.322;7.218;2023-01-31T08:31:20;99762.16;;;7.17;100.00
18275;BME280;19470;49.322;7.218;2023-01-31T08:33:47;99776.50;;;7.15;100.00
18275;BME280;19470;49.322;7.218;2023-01-31T08:36:17;99774.38;;;7.66;100.00
18275;BME280;19470;49.322;7.218;2023-01-31T08:38:46;99776.59;;;7.63;100.00
18275;BME280;19470;49.322;7.218;2023-01-31T08:41:13;99775.53;;;7.57;100.00
18275;BME280;19470;49.322;7.218;2023-01-31T08:43:41;99786.56;;;7.05;100.00
18275;BME280;19470;49.322;7.218;2023-01-31T08:46:07;99794.13;;;7.14;100.00
18275;BME280;19470;49.322;7.218;2023-01-31T08:48:34;99795.38;;;6.90;100.00
18275;BME280;19470;49.322;7.218;2023-01-31T08:51:01;99791.75;;;6.49;100.00
18275;BME280;19470;49.322;7.218;2023-01-31T08:53:27;99779.81;;;6.96;100.00
18275;BME280;19470;49.322;7.218;2023-01-31T08:55:58;99780.59;;;7.17;100.00
18275;BME280;19470;49.322;7.218;2023-01-31T08:58:25;99783.78;;;7.13;100.00
18275;BME280;19470;49.322;7.218;2023-01-31T09:00:52;99780.03;;;7.29;100.00
18275;BME280;19470;49.322;7.218;2023-01-31T09:03:19;99758.78;;;7.30;100.00
18275;BME280;19470;49.322;7.218;2023-01-31T09:05:45;99759.78;;;7.71;100.00
18275;BME280;19470;49.322;7.218;2023-01-31T09:08:12;99763.19;;;7.23;100.00
18275;BME280;19470;49.322;7.218;2023-01-31T09:10:38;99760.88;;;7.41;100.00
18275;BME280;19470;49.322;7.218;2023-01-31T09:13:06;99771.97;;;7.02;100.00
18275;BME280;19470;49.322;7.218;2023-01-31T09:15:32;99762.25;;;7.72;100.00
18275;BME280;19470;49.322;7.218;2023-01-31T09:17:59;99767.22;;;8.02;100.00
18275;BME280;19470;49.322;7.218;2023-01-31T09:20:25;99763.25;;;7.30;100.00
18275;BME280;19470;49.322;7.218;2023-01-31T09:22:52;99781.59;;;7.51;100.00
18275;BME280;19470;49.322;7.218;2023-01-31T09:25:18;99771.97;;;8.19;100.00
18275;BME280;19470;49.322;7.218;2023-01-31T09:27:45;99771.19;;;7.78;100.00
18275;BME280;19470;49.322;7.218;2023-01-31T09:30:13;99772.97;;;7.29;100.00
18275;BME280;19470;49.322;7.218;2023-01-31T09:32:40;99774.19;;;7.33;100.00
18275;BME280;19470;49.322;7.218;2023-01-31T09:35:08;99756.19;;;7.72;100.00
18275;BME280;19470;49.322;7.218;2023-01-31T09:37:34;99753.28;;;8.28;100.00
18275;BME280;19470;49.322;7.218;2023-01-31T09:40:02;99759.16;;;8.10;100.00
18275;BME280;19470;49.322;7.218;2023-01-31T09:42:32;99772.38;;;7.68;100.00
18275;BME280;19470;49.322;7.218;2023-01-31T09:45:02;99776.66;;;8.31;100.00
18275;BME280;19470;49.322;7.218;2023-01-31T09:47:34;99782.75;;;7.42;100.00
18275;BME280;19470;49.322;7.218;2023-01-31T09:50:05;99765.16;;;8.52;100.00
18275;BME280;19470;49.322;7.218;2023-01-31T09:52:32;99768.44;;;7.99;100.00
18275;BME280;19470;49.322;7.218;2023-01-31T09:54:59;99774.22;;;8.29;100.00
18275;BME280;19470;49.322;7.218;2023-01-31T09:57:35;99778.22;;;8.12;100.00
18275;BME280;19470;49.322;7.218;2023-01-31T10:00:15;99770.22;;;8.60;100.00
18275;BME280;19470;49.322;7.218;2023-01-31T10:03:13;99771.88;;;8.87;100.00
18275;BME280;19470;49.322;7.218;2023-01-31T10:05:48;99773.66;;;8.54;100.00
18275;BME280;19470;49.322;7.218;2023-01-31T10:08:21;99771.25;;;8.79;100.00
18275;BME280;19470;49.322;7.218;2023-01-31T10:10:56;99776.94;;;8.62;100.00
18275;BME280;19470;49.322;7.218;2023-01-31T10:13:28;99786.97;;;7.71;100.00
18275;BME280;19470;49.322;7.218;2023-01-31T10:16:03;99772.88;;;8.73;100.00
18275;BME280;19470;49.322;7.218;2023-01-31T10:18:40;99771.44;;;8.97;100.00
18275;BME280;19470;49.322;7.218;2023-01-31T10:21:11;99759.06;;;8.78;100.00
18275;BME280;19470;49.322;7.218;2023-01-31T10:23:41;99759.69;;;8.66;100.00
18275;BME280;19470;49.322;7.218;2023-01-31T10:26:13;99752.78;;;8.72;100.00
18275;BME280;19470;49.322;7.218;2023-01-31T10:28:46;99750.84;;;9.39;100.00
18275;BME280;19470;49.322;7.218;2023-01-31T10:31:25;99750.25;;;9.37;100.00
18275;BME280;19470;49.322;7.218;2023-01-31T10:33:58;99755.19;;;8.87;100.00
18275;BME280;19470;49.322;7.218;2023-01-31T10:36:28;99745.72;;;9.57;100.00
18275;BME280;19470;49.322;7.218;2023-01-31T10:39:01;99732.41;;;9.19;100.00
18275;BME280;19470;49.322;7.218;2023-01-31T10:41:36;99716.19;;;8.56;100.00
18275;BME280;19470;49.322;7.218;2023-01-31T10:44:14;99731.63;;;8.92;100.00
18275;BME280;19470;49.322;7.218;2023-01-31T10:46:43;99721.06;;;8.85;100.00
18275;BME280;19470;49.322;7.218;2023-01-31T10:49:10;99714.53;;;9.14;100.00
18275;BME280;19470;49.322;7.218;2023-01-31T10:51:51;99722.25;;;8.36;100.00
18275;BME280;19470;49.322;7.218;2023-01-31T10:54:32;99703.00;;;8.42;100.00
18275;BME280;19470;49.322;7.218;2023-01-31T10:57:00;99697.44;;;9.10;100.00
18275;BME280;19470;49.322;7.218;2023-01-31T10:59:30;99696.69;;;8.90;100.00
18275;BME280;19470;49.322;7.218;2023-01-31T11:01:58;99695.28;;;8.54;100.00
18275;BME280;19470;49.322;7.218;2023-01-31T11:04:30;99692.63;;;8.54;100.00
18275;BME280;19470;49.322;7.218;2023-01-31T11:06:58;99687.16;;;8.49;100.00
18275;BME280;19470;49.322;7.218;2023-01-31T11:09:28;99685.72;;;8.47;100.00
18275;BME280;19470;49.322;7.218;2023-01-31T11:11:56;99683.03;;;9.06;100.00
18275;BME280;19470;49.322;7.218;2023-01-31T11:14:23;99677.94;;;9.18;100.00
18275;BME280;19470;49.322;7.218;2023-01-31T11:16:57;99673.47;;;7.92;100.00
18275;BME280;19470;49.322;7.218;2023-01-31T11:19:31;99665.03;;;8.57;100.00
18275;BME280;19470;49.322;7.218;2023-01-31T11:22:00;99661.31;;;8.91;100.00
18275;BME280;19470;49.322;7.218;2023-01-31T11:24:29;99648.38;;;8.56;100.00
18275;BME280;19470;49.322;7.218;2023-01-31T11:27:02;99644.34;;;9.25;100.00
18275;BME280;19470;49.322;7.218;2023-01-31T11:29:31;99648.59;;;9.33;100.00
18275;BME280;19470;49.322;7.218;2023-01-31T11:32:03;99656.88;;;8.72;100.00
18275;BME280;19470;49.322;7.218;2023-01-31T11:34:32;99650.69;;;9.11;100.00
18275;BME280;19470;49.322;7.218;2023-01-31T11:37:04;99665.53;;;9.12;100.00
18275;BME280;19470;49.322;7.218;2023-01-31T11:39:32;99657.25;;;8.88;100.00
18275;BME280;19470;49.322;7.218;2023-01-31T11:42:13;99659.19;;;9.26;100.00
18275;BME280;19470;49.322;7.218;2023-01-31T11:44:54;99672.38;;;9.78;100.00
18275;BME280;19470;49.322;7.218;2023-01-31T11:47:26;99661.75;;;8.75;100.00
18275;BME280;19470;49.322;7.218;2023-01-31T11:49:54;99649.31;;;9.53;100.00
18275;BME280;19470;49.322;7.218;2023-01-31T11:52:27;99644.00;;;9.08;100.00
18275;BME280;19470;49.322;7.218;2023-01-31T11:54:57;99651.56;;;8.18;100.00
18275;BME280;19470;49.322;7.218;2023-01-31T11:57:28;99642.44;;;8.08;100.00
18275;BME280;19470;49.322;7.218;2023-01-31T11:59:58;99646.94;;;8.54;100.00
18275;BME280;19470;49.322;7.218;2023-01-31T12:02:30;99643.91;;;8.37;100.00
18275;BME280;19470;49.322;7.218;2023-01-31T12:05:07;99630.47;;;8.72;100.00
18275;BME280;19470;49.322;7.218;2023-01-31T12:07:41;99616.06;;;8.54;100.00
18275;BME280;19470;49.322;7.218;2023-01-31T12:10:25;99621.50;;;8.79;100.00
18275;BME280;19470;49.322;7.218;2023-01-31T12:12:56;99610.75;;;9.39;100.00
18275;BME280;19470;49.322;7.218;2023-01-31T12:15:23;99598.59;;;8.60;100.00
18275;BME280;19470;49.322;7.218;2023-01-31T12:17:50;99593.25;;;9.38;100.00
18275;BME280;19470;49.322;7.218;2023-01-31T12:20:22;99573.81;;;8.67;100.00
18275;BME280;19470;49.322;7.218;2023-01-31T12:23:06;99576.88;;;9.61;100.00
18275;BME280;19470;49.322;7.218;2023-01-31T12:25:54;99576.06;;;9.15;100.00
18275;BME280;19470;49.322;7.218;2023-01-31T12:28:33;99562.09;;;9.46;100.00
18275;BME280;19470;49.322;7.218;2023-01-31T12:31:14;99549.63;;;9.85;100.00
18275;BME280;19470;49.322;7.218;2023-01-31T12:33:59;99544.78;;;9.51;100.00
18275;BME280;19470;49.322;7.218;2023-01-31T12:36:46;99544.19;;;9.10;100.00
18275;BME280;19470;49.322;7.218;2023-01-31T12:39:28;99535.78;;;9.58;100.00
18275;BME280;19470;49.322;7.218;2023-01-31T12:42:06;99533.03;;;9.40;100.00
18275;BME280;19470;49.322;7.218;2023-01-31T12:44:42;99520.84;;;9.70;100.00
18275;BME280;19470;49.322;7.218;2023-01-31T12:47:32;99532.47;;;9.38;100.00
18275;BME280;19470;49.322;7.218;2023-01-31T12:50:28;99524.84;;;9.16;100.00
18275;BME280;19470;49.322;7.218;2023-01-31T12:53:19;99523.41;;;9.52;100.00
18275;BME280;19470;49.322;7.218;2023-01-31T12:55:59;99529.00;;;9.94;100.00
18275;BME280;19470;49.322;7.218;2023-01-31T12:58:39;99520.25;;;9.68;100.00
18275;BME280;19470;49.322;7.218;2023-01-31T13:01:11;99521.66;;;9.01;100.00
18275;BME280;19470;49.322;7.218;2023-01-31T13:03:57;99520.69;;;8.95;100.00
18275;BME280;19470;49.322;7.218;2023-01-31T13:06:29;99522.19;;;9.23;100.00
18275;BME280;19470;49.322;7.218;2023-01-31T13:09:01;99525.94;;;9.02;100.00
18275;BME280;19470;49.322;7.218;2023-01-31T13:11:35;99526.78;;;9.91;100.00
18275;BME280;19470;49.322;7.218;2023-01-31T13:14:04;99507.66;;;9.01;100.00
18275;BME280;19470;49.322;7.218;2023-01-31T13:16:36;99507.34;;;8.77;100.00
18275;BME280;19470;49.322;7.218;2023-01-31T13:19:09;99509.84;;;9.10;100.00